Time;durP1;ratioP1;P1;durP2;ratioP2;P2;SDS_P1;SDS_P2;PMS_P1;PMS_P2;Temp;Humidity;BMP_temperature;BMP_pressure;BME280_temperature;BME280_humidity;BME280_pressure;Samples;Min_cycle;Max_cycle;Signal;HPM_P1;HPM_P2
2024/03/23 00:01:49;;;;;;;22.45;11.13;;;;;;;;;;5059118;28;20033;-47
2024/03/23 00:04:15;;;;;;;17.30;9.55;;;;;;;;;;5046275;28;20032;-51
2024/03/23 00:06:42;;;;;;;16.92;8.18;;;;;;;;;;5046773;28;20036;-47
2024/03/23 00:09:08;;;;;;;31.40;13.57;;;;;;;;;;5047099;28;20045;-48
2024/03/23 00:11:35;;;;;;;15.38;7.75;;;;;;;;;;5062094;28;20032;-49
2024/03/23 00:14:01;;;;;;;23.83;10.68;;;;;;;;;;5013135;28;20045;-48
2024/03/23 00:16:28;;;;;;;19.73;9.00;;;;;;;;;;5056743;28;20041;-48
2024/03/23 00:18:56;;;;;;;17.30;9.07;;;;;;;;;;5058213;28;20143;-48
2024/03/23 00:21:23;;;;;;;18.85;8.52;;;;;;;;;;5046336;28;20029;-49
2024/03/23 00:23:49;;;;;;;23.05;10.40;;;;;;;;;;5074484;28;20535;-46
2024/03/23 00:26:15;;;;;;;23.63;10.52;;;;;;;;;;5064740;28;20143;-45
2024/03/23 00:28:41;;;;;;;17.27;8.55;;;;;;;;;;5064857;28;20094;-48
2024/03/23 00:31:07;;;;;;;24.23;11.52;;;;;;;;;;5062852;28;20052;-48
2024/03/23 00:33:33;;;;;;;25.02;10.98;;;;;;;;;;5044964;28;20037;-52
2024/03/23 00:36:01;;;;;;;24.85;10.07;;;;;;;;;;5061619;28;20526;-50
2024/03/23 00:38:27;;;;;;;31.50;14.13;;;;;;;;;;5051519;28;20036;-48
2024/03/23 00:40:53;;;;;;;24.40;11.70;;;;;;;;;;5066072;28;20101;-46
2024/03/23 00:43:19;;;;;;;21.95;10.35;;;;;;;;;;5075429;28;20041;-49
2024/03/23 00:45:47;;;;;;;24.67;10.77;;;;;;;;;;5046112;28;20032;-54
2024/03/23 00:48:14;;;;;;;19.80;9.00;;;;;;;;;;5048569;28;20044;-50
2024/03/23 00:50:40;;;;;;;27.67;11.75;;;;;;;;;;5066188;28;20043;-49
2024/03/23 00:53:06;;;;;;;26.25;12.15;;;;;;;;;;5065524;28;20044;-50
2024/03/23 00:55:32;;;;;;;27.58;12.80;;;;;;;;;;5044397;28;20043;-51
2024/03/23 00:57:58;;;;;;;31.50;13.32;;;;;;;;;;5028310;28;20708;-53
2024/03/23 01:00:23;;;;;;;27.83;11.80;;;;;;;;;;5052240;28;20032;-49
2024/03/23 01:02:49;;;;;;;32.67;13.40;;;;;;;;;;5064212;28;20106;-51
2024/03/23 01:05:14;;;;;;;28.63;12.75;;;;;;;;;;5049398;28;20512;-51
2024/03/23 01:07:40;;;;;;;23.27;11.38;;;;;;;;;;5046480;28;20045;-49
2024/03/23 01:10:06;;;;;;;23.25;9.10;;;;;;;;;;5046169;28;20591;-49
2024/03/23 01:12:32;;;;;;;35.00;13.57;;;;;;;;;;5045919;28;20455;-49
2024/03/23 01:14:57;;;;;;;25.75;12.48;;;;;;;;;;5045737;28;20119;-46
2024/03/23 01:17:23;;;;;;;27.80;12.82;;;;;;;;;;5045984;28;20029;-47
2024/03/23 01:19:49;;;;;;;24.25;10.77;;;;;;;;;;5054742;28;20032;-49
2024/03/23 01:22:15;;;;;;;28.30;12.15;;;;;;;;;;5065757;28;20033;-47
2024/03/23 01:24:40;;;;;;;24.27;11.57;;;;;;;;;;5047129;28;20690;-53
2024/03/23 01:27:06;;;;;;;26.40;11.15;;;;;;;;;;5063948;28;20052;-47
2024/03/23 01:29:32;;;;;;;22.27;9.43;;;;;;;;;;5065528;28;20032;-48
2024/03/23 01:31:57;;;;;;;29.90;13.00;;;;;;;;;;5065538;28;20416;-50
2024/03/23 01:34:24;;;;;;;26.42;12.40;;;;;;;;;;5065608;28;20036;-50
2024/03/23 01:36:50;;;;;;;26.35;9.77;;;;;;;;;;5045776;28;20115;-50
2024/03/23 01:39:16;;;;;;;33.22;13.00;;;;;;;;;;5044329;28;20029;-47
2024/03/23 01:41:43;;;;;;;21.35;10.27;;;;;;;;;;5044343;28;20075;-50
2024/03/23 01:44:09;;;;;;;19.85;8.75;;;;;;;;;;5044357;28;20048;-47
2024/03/23 01:46:38;;;;;;;19.17;9.57;;;;;;;;;;5045622;28;20265;-48
2024/03/23 01:49:07;;;;;;;19.40;9.35;;;;;;;;;;5053356;28;20049;-47
2024/03/23 01:51:33;;;;;;;18.83;9.18;;;;;;;;;;5065488;28;20044;-49
2024/03/23 01:54:02;;;;;;;25.60;11.10;;;;;;;;;;5065491;28;20041;-48
2024/03/23 01:56:28;;;;;;;27.52;12.05;;;;;;;;;;5036440;28;20033;-47
2024/03/23 01:58:54;;;;;;;22.45;10.35;;;;;;;;;;5045775;28;20025;-49
2024/03/23 02:01:20;;;;;;;19.70;8.43;;;;;;;;;;5049383;28;20086;-49
2024/03/23 02:03:46;;;;;;;29.40;13.23;;;;;;;;;;5065001;28;20055;-50
2024/03/23 02:06:12;;;;;;;33.13;10.48;;;;;;;;;;5048224;28;20033;-47
2024/03/23 02:08:37;;;;;;;25.92;11.45;;;;;;;;;;5049269;28;20500;-48
2024/03/23 02:11:03;;;;;;;30.77;13.57;;;;;;;;;;5049019;28;20040;-50
2024/03/23 02:13:29;;;;;;;21.27;7.40;;;;;;;;;;5047646;28;20512;-49
2024/03/23 02:15:55;;;;;;;16.42;9.10;;;;;;;;;;5048933;28;20033;-51
2024/03/23 02:18:20;;;;;;;30.13;11.98;;;;;;;;;;5050959;28;20052;-50
2024/03/23 02:20:46;;;;;;;31.98;11.82;;;;;;;;;;5069096;28;20027;-48
2024/03/23 02:23:15;;;;;;;27.95;11.80;;;;;;;;;;5067523;28;20032;-50
2024/03/23 02:25:41;;;;;;;33.30;13.23;;;;;;;;;;5067544;28;20126;-49
2024/03/23 02:28:07;;;;;;;26.33;12.07;;;;;;;;;;5053052;28;20501;-51
2024/03/23 02:30:33;;;;;;;19.05;8.60;;;;;;;;;;5048792;28;20045;-49
2024/03/23 02:32:58;;;;;;;26.15;9.80;;;;;;;;;;5051482;28;20369;-51
2024/03/23 02:35:24;;;;;;;28.55;12.95;;;;;;;;;;5060551;28;20582;-49
2024/03/23 02:37:50;;;;;;;17.55;8.20;;;;;;;;;;5055928;28;20127;-48
2024/03/23 02:40:16;;;;;;;19.73;8.63;;;;;;;;;;5052241;28;20048;-51
2024/03/23 02:42:43;;;;;;;24.33;11.32;;;;;;;;;;5048678;28;20071;-49
2024/03/23 02:45:09;;;;;;;31.67;13.82;;;;;;;;;;5068453;28;20044;-49
2024/03/23 02:47:35;;;;;;;31.17;12.55;;;;;;;;;;5062405;28;20447;-49
2024/03/23 02:50:01;;;;;;;27.88;10.55;;;;;;;;;;5079341;28;20043;-48
2024/03/23 02:52:26;;;;;;;22.80;9.25;;;;;;;;;;5058360;28;20484;-46
2024/03/23 02:54:52;;;;;;;21.20;10.48;;;;;;;;;;5048264;28;20504;-48
2024/03/23 02:57:18;;;;;;;23.13;9.98;;;;;;;;;;5048157;28;20140;-52
2024/03/23 02:59:43;;;;;;;26.83;12.73;;;;;;;;;;5066385;28;20058;-47
2024/03/23 03:02:09;;;;;;;21.08;10.40;;;;;;;;;;5068187;28;20032;-49
2024/03/23 03:04:35;;;;;;;24.88;11.93;;;;;;;;;;5066620;28;20495;-48
2024/03/23 03:07:01;;;;;;;29.95;13.60;;;;;;;;;;5066774;28;20123;-46
2024/03/23 03:09:27;;;;;;;23.00;10.85;;;;;;;;;;5062308;28;20037;-49
2024/03/23 03:11:52;;;;;;;22.48;10.02;;;;;;;;;;5067123;28;20131;-47
2024/03/23 03:14:18;;;;;;;22.02;9.48;;;;;;;;;;5050138;28;20561;-50
2024/03/23 03:16:44;;;;;;;28.50;11.27;;;;;;;;;;5066524;28;20040;-49
2024/03/23 03:19:10;;;;;;;26.17;12.25;;;;;;;;;;5058188;28;20047;-49
2024/03/23 03:21:37;;;;;;;36.85;14.63;;;;;;;;;;5046915;28;20504;-46
2024/03/23 03:24:02;;;;;;;32.58;13.55;;;;;;;;;;5063260;28;20283;-50
2024/03/23 03:26:28;;;;;;;32.45;14.00;;;;;;;;;;5047896;28;20128;-48
2024/03/23 03:28:54;;;;;;;33.83;14.10;;;;;;;;;;5047960;28;20056;-48
2024/03/23 03:31:20;;;;;;;24.15;11.02;;;;;;;;;;5047796;28;20086;-48
2024/03/23 03:33:46;;;;;;;32.58;14.45;;;;;;;;;;5047504;28;20074;-51
2024/03/23 03:36:12;;;;;;;33.13;13.15;;;;;;;;;;5045714;28;20523;-51
2024/03/23 03:38:41;;;;;;;28.25;11.38;;;;;;;;;;5069777;28;20032;-48
2024/03/23 03:41:06;;;;;;;23.48;10.60;;;;;;;;;;5045941;28;20623;-47
2024/03/23 03:43:32;;;;;;;23.65;10.88;;;;;;;;;;5047534;28;20115;-51
2024/03/23 03:45:59;;;;;;;23.02;10.70;;;;;;;;;;5047542;28;20463;-53
2024/03/23 03:48:25;;;;;;;31.75;13.27;;;;;;;;;;5050582;28;20036;-51
2024/03/23 03:50:50;;;;;;;33.28;14.00;;;;;;;;;;5062941;28;20045;-47
2024/03/23 03:53:16;;;;;;;36.30;16.58;;;;;;;;;;5064335;28;20129;-54
2024/03/23 03:55:42;;;;;;;30.90;13.50;;;;;;;;;;5066830;28;20046;-52
2024/03/23 03:58:08;;;;;;;29.17;11.00;;;;;;;;;;5044856;28;20508;-50
2024/03/23 04:00:33;;;;;;;27.45;12.20;;;;;;;;;;5067467;28;20048;-49
2024/03/23 04:02:59;;;;;;;16.95;9.90;;;;;;;;;;5066962;28;20415;-47
2024/03/23 04:05:25;;;;;;;29.63;12.00;;;;;;;;;;5045587;28;20044;-48
2024/03/23 04:07:50;;;;;;;36.63;14.27;;;;;;;;;;5047537;28;20048;-49
2024/03/23 04:10:16;;;;;;;21.60;10.10;;;;;;;;;;5051899;28;20477;-50
2024/03/23 04:12:43;;;;;;;30.92;13.40;;;;;;;;;;5047191;28;20190;-47
2024/03/23 04:15:09;;;;;;;31.58;12.20;;;;;;;;;;5065207;28;20036;-45
2024/03/23 04:17:35;;;;;;;26.35;11.95;;;;;;;;;;5082267;28;20035;-46
2024/03/23 04:20:02;;;;;;;24.00;9.85;;;;;;;;;;5066928;28;20024;-46
2024/03/23 04:22:30;;;;;;;23.77;10.90;;;;;;;;;;5051456;28;20033;-46
2024/03/23 04:24:56;;;;;;;28.25;12.95;;;;;;;;;;5049197;28;20166;-48
2024/03/23 04:27:24;;;;;;;24.50;11.02;;;;;;;;;;5067172;28;20097;-45
2024/03/23 04:29:50;;;;;;;22.83;10.40;;;;;;;;;;5066725;28;20033;-45
2024/03/23 04:32:16;;;;;;;26.48;10.95;;;;;;;;;;5064257;28;20495;-45
2024/03/23 04:34:43;;;;;;;25.20;11.63;;;;;;;;;;5066212;28;20043;-49
2024/03/23 04:37:09;;;;;;;20.50;9.50;;;;;;;;;;5065037;28;20118;-46
2024/03/23 04:39:38;;;;;;;26.13;11.90;;;;;;;;;;5066299;28;20024;-46
2024/03/23 04:42:04;;;;;;;26.17;12.25;;;;;;;;;;5055734;28;20044;-51
2024/03/23 04:44:30;;;;;;;25.92;12.13;;;;;;;;;;5061452;28;20029;-47
2024/03/23 04:46:59;;;;;;;17.13;7.20;;;;;;;;;;5046143;28;20717;-45
2024/03/23 04:49:25;;;;;;;28.73;12.27;;;;;;;;;;5046074;28;20033;-46
2024/03/23 04:51:51;;;;;;;18.75;8.27;;;;;;;;;;5073363;28;20039;-46
2024/03/23 04:54:17;;;;;;;28.85;12.10;;;;;;;;;;5076362;28;20040;-50
2024/03/23 04:56:42;;;;;;;23.50;8.57;;;;;;;;;;5073755;28;20067;-49
2024/03/23 04:59:08;;;;;;;28.15;11.38;;;;;;;;;;5073796;28;20503;-46
2024/03/23 05:01:34;;;;;;;13.13;6.60;;;;;;;;;;5073527;28;20064;-47
2024/03/23 05:04:02;;;;;;;18.92;10.23;;;;;;;;;;5075590;28;20031;-49
2024/03/23 05:06:28;;;;;;;24.27;9.23;;;;;;;;;;5073773;28;20047;-46
2024/03/23 05:08:54;;;;;;;30.27;12.75;;;;;;;;;;5058838;28;20035;-47
2024/03/23 05:11:20;;;;;;;28.30;12.35;;;;;;;;;;5079697;28;20040;-49
2024/03/23 05:13:46;;;;;;;22.63;11.55;;;;;;;;;;5070974;28;20172;-55
2024/03/23 05:16:12;;;;;;;22.02;10.70;;;;;;;;;;5073941;28;20127;-54
2024/03/23 05:18:38;;;;;;;22.90;11.35;;;;;;;;;;5075082;28;20028;-49
2024/03/23 05:21:04;;;;;;;21.75;10.30;;;;;;;;;;5076569;28;20396;-46
2024/03/23 05:23:30;;;;;;;24.55;8.95;;;;;;;;;;5073143;28;20044;-47
2024/03/23 05:25:56;;;;;;;11.95;5.28;;;;;;;;;;5075987;28;20043;-49
2024/03/23 05:28:22;;;;;;;15.82;8.27;;;;;;;;;;5074447;28;20702;-49
2024/03/23 05:30:51;;;;;;;16.77;7.60;;;;;;;;;;5076303;28;20032;-48
2024/03/23 05:33:17;;;;;;;23.85;11.20;;;;;;;;;;5077104;28;20070;-52
2024/03/23 05:35:43;;;;;;;18.73;9.20;;;;;;;;;;5085233;28;20068;-49
2024/03/23 05:38:09;;;;;;;21.88;10.60;;;;;;;;;;5069687;28;20095;-52
2024/03/23 05:40:37;;;;;;;20.00;10.13;;;;;;;;;;5069522;28;20111;-48
2024/03/23 05:43:03;;;;;;;24.20;11.43;;;;;;;;;;5065954;28;20036;-47
2024/03/23 05:45:29;;;;;;;24.65;10.80;;;;;;;;;;5065004;28;20098;-53
2024/03/23 05:47:56;;;;;;;13.15;7.38;;;;;;;;;;5048477;28;20033;-48
2024/03/23 05:50:22;;;;;;;27.73;12.52;;;;;;;;;;5049494;28;20512;-52
2024/03/23 05:52:49;;;;;;;21.83;8.65;;;;;;;;;;5064518;28;20089;-52
2024/03/23 05:55:14;;;;;;;20.45;9.85;;;;;;;;;;5054062;28;20040;-45
2024/03/23 05:57:40;;;;;;;21.45;10.10;;;;;;;;;;5048014;28;20029;-52
2024/03/23 06:00:10;;;;;;;18.65;7.68;;;;;;;;;;5049481;28;20044;-48
2024/03/23 06:02:37;;;;;;;20.95;9.98;;;;;;;;;;5049751;28;20037;-52
2024/03/23 06:05:03;;;;;;;12.73;5.43;;;;;;;;;;5058716;28;20074;-48
2024/03/23 06:07:29;;;;;;;18.98;9.48;;;;;;;;;;5047267;28;20516;-51
2024/03/23 06:09:55;;;;;;;19.25;9.88;;;;;;;;;;5052533;28;20059;-51
2024/03/23 06:12:21;;;;;;;20.02;10.10;;;;;;;;;;5067411;28;20024;-52
2024/03/23 06:14:48;;;;;;;20.63;9.95;;;;;;;;;;5067674;28;20946;-54
2024/03/23 06:17:14;;;;;;;18.85;8.15;;;;;;;;;;5067799;28;20122;-51
2024/03/23 06:19:39;;;;;;;18.55;9.73;;;;;;;;;;5049259;28;20440;-50
2024/03/23 06:22:06;;;;;;;21.15;9.18;;;;;;;;;;5064312;28;20065;-51
2024/03/23 06:24:32;;;;;;;16.48;8.32;;;;;;;;;;5048760;28;20496;-50
2024/03/23 06:26:57;;;;;;;24.10;8.95;;;;;;;;;;5050890;28;20029;-53
2024/03/23 06:29:24;;;;;;;20.65;10.50;;;;;;;;;;5056635;28;20052;-51
2024/03/23 06:31:55;;;;;;;14.60;8.00;;;;;;;;;;5047709;28;20041;-54
2024/03/23 06:34:22;;;;;;;15.23;7.20;;;;;;;;;;5047571;28;20029;-52
2024/03/23 06:36:49;;;;;;;17.02;8.20;;;;;;;;;;5047279;28;20045;-49
2024/03/23 06:39:18;;;;;;;12.13;6.93;;;;;;;;;;5047261;28;20028;-55
2024/03/23 06:42:02;;;;;;;19.00;9.60;;;;;;;;;;5048702;28;20455;-52
2024/03/23 06:44:29;;;;;;;15.68;8.13;;;;;;;;;;5068654;28;20064;-51
2024/03/23 06:46:54;;;;;;;14.60;7.15;;;;;;;;;;5064088;28;20064;-51
2024/03/23 06:49:20;;;;;;;17.20;8.80;;;;;;;;;;5039082;28;20056;-50
2024/03/23 06:51:46;;;;;;;14.68;6.68;;;;;;;;;;5055469;28;20033;-54
2024/03/23 06:54:12;;;;;;;12.35;5.53;;;;;;;;;;5068290;28;20115;-52
2024/03/23 06:56:38;;;;;;;8.60;5.32;;;;;;;;;;5066537;28;20036;-49
2024/03/23 06:59:06;;;;;;;17.38;7.18;;;;;;;;;;5068279;28;20040;-49
2024/03/23 07:01:32;;;;;;;16.92;7.53;;;;;;;;;;5066358;28;20029;-49
2024/03/23 07:03:57;;;;;;;17.65;7.35;;;;;;;;;;5077973;28;20516;-53
2024/03/23 07:06:23;;;;;;;23.77;9.73;;;;;;;;;;5066757;28;20044;-53
2024/03/23 07:08:49;;;;;;;11.98;7.07;;;;;;;;;;5066593;28;20044;-51
2024/03/23 07:11:24;;;;;;;11.68;5.97;;;;;;;;;;5067922;28;20508;-57
2024/03/23 07:13:50;;;;;;;13.40;6.57;;;;;;;;;;5067860;28;20162;-53
2024/03/23 07:16:16;;;;;;;15.15;7.78;;;;;;;;;;5049658;28;20141;-48
2024/03/23 07:18:42;;;;;;;9.52;5.25;;;;;;;;;;5066649;28;20074;-49
2024/03/23 07:21:07;;;;;;;10.35;5.00;;;;;;;;;;5067175;28;20033;-54
2024/03/23 07:23:34;;;;;;;16.23;7.82;;;;;;;;;;5066917;28;20263;-52
2024/03/23 07:26:07;;;;;;;17.05;7.70;;;;;;;;;;5059245;28;20037;-54
2024/03/23 07:28:34;;;;;;;14.50;7.72;;;;;;;;;;5046343;28;20048;-54
2024/03/23 07:31:09;;;;;;;14.88;5.18;;;;;;;;;;5047329;28;20068;-55
2024/03/23 07:33:36;;;;;;;21.33;8.50;;;;;;;;;;5045351;28;20192;-54
2024/03/23 07:36:02;;;;;;;17.52;7.07;;;;;;;;;;5029398;28;20037;-59
2024/03/23 07:38:29;;;;;;;11.43;6.22;;;;;;;;;;5059017;28;20515;-51
2024/03/23 07:41:04;;;;;;;15.60;7.00;;;;;;;;;;5068229;28;20502;-50
2024/03/23 07:43:30;;;;;;;10.55;5.82;;;;;;;;;;5061824;28;20082;-51
2024/03/23 07:45:56;;;;;;;16.27;8.80;;;;;;;;;;5069735;28;20032;-56
2024/03/23 07:48:25;;;;;;;10.48;5.95;;;;;;;;;;5083370;28;20131;-52
2024/03/23 07:51:00;;;;;;;10.73;6.53;;;;;;;;;;5047229;28;20040;-54
2024/03/23 07:53:27;;;;;;;12.98;6.93;;;;;;;;;;5047287;28;20135;-51
2024/03/23 07:55:57;;;;;;;12.13;6.57;;;;;;;;;;5060449;28;20036;-51
2024/03/23 07:58:22;;;;;;;12.00;6.38;;;;;;;;;;5065138;28;20044;-52
2024/03/23 08:00:48;;;;;;;9.00;5.50;;;;;;;;;;5065438;28;20085;-52
2024/03/23 08:03:14;;;;;;;20.45;8.40;;;;;;;;;;5067022;28;20028;-50
2024/03/23 08:05:40;;;;;;;12.23;6.20;;;;;;;;;;5064806;28;20047;-49
2024/03/23 08:08:05;;;;;;;20.45;8.90;;;;;;;;;;5064848;28;20050;-52
2024/03/23 08:10:31;;;;;;;14.90;7.05;;;;;;;;;;5066741;28;20040;-51
2024/03/23 08:12:57;;;;;;;10.82;5.85;;;;;;;;;;5034055;28;20043;-54
2024/03/23 08:15:23;;;;;;;6.22;4.13;;;;;;;;;;5077746;28;20036;-53
2024/03/23 08:17:49;;;;;;;13.13;6.25;;;;;;;;;;5065981;28;20115;-53
2024/03/23 08:20:15;;;;;;;6.53;4.35;;;;;;;;;;5065842;28;20551;-52
2024/03/23 08:22:40;;;;;;;10.68;6.05;;;;;;;;;;5065531;28;20109;-54
2024/03/23 08:25:06;;;;;;;10.52;5.68;;;;;;;;;;5065735;28;20036;-54
2024/03/23 08:27:32;;;;;;;8.02;4.75;;;;;;;;;;5066920;28;20048;-52
2024/03/23 08:29:58;;;;;;;9.82;5.70;;;;;;;;;;5047861;28;20561;-51
2024/03/23 08:32:24;;;;;;;10.60;5.80;;;;;;;;;;5066253;28;20052;-53
2024/03/23 08:34:50;;;;;;;17.70;7.40;;;;;;;;;;5066737;28;20036;-52
2024/03/23 08:37:15;;;;;;;16.17;8.40;;;;;;;;;;5066714;28;20051;-53
2024/03/23 08:39:44;;;;;;;15.05;7.65;;;;;;;;;;5044843;28;20098;-56
2024/03/23 08:42:10;;;;;;;13.70;7.20;;;;;;;;;;5046494;28;20041;-53
2024/03/23 08:44:35;;;;;;;6.60;4.90;;;;;;;;;;5020747;28;20029;-50
2024/03/23 08:47:01;;;;;;;12.38;6.78;;;;;;;;;;5050439;28;20043;-55
2024/03/23 08:49:27;;;;;;;9.48;5.70;;;;;;;;;;5062279;28;20036;-52
2024/03/23 08:51:54;;;;;;;8.43;5.18;;;;;;;;;;5064989;28;20055;-52
2024/03/23 08:54:20;;;;;;;14.52;7.80;;;;;;;;;;5060098;28;20041;-52
2024/03/23 08:56:46;;;;;;;8.55;5.88;;;;;;;;;;5061094;28;20445;-52
2024/03/23 08:59:11;;;;;;;11.38;6.85;;;;;;;;;;5053960;28;20087;-51
2024/03/23 09:01:38;;;;;;;11.48;6.13;;;;;;;;;;5045214;28;20021;-55
2024/03/23 09:04:04;;;;;;;10.88;5.63;;;;;;;;;;5045427;28;20045;-53
2024/03/23 09:06:30;;;;;;;10.27;6.10;;;;;;;;;;5044883;28;20032;-50
2024/03/23 09:08:55;;;;;;;13.40;6.32;;;;;;;;;;5043880;28;20044;-52
2024/03/23 09:11:21;;;;;;;10.25;5.88;;;;;;;;;;5045950;28;20051;-56
2024/03/23 09:13:47;;;;;;;10.88;5.55;;;;;;;;;;5044412;28;20071;-54
2024/03/23 09:16:12;;;;;;;10.43;6.18;;;;;;;;;;5050700;28;20275;-52
2024/03/23 09:18:38;;;;;;;14.27;6.88;;;;;;;;;;5064096;28;20534;-52
2024/03/23 09:21:10;;;;;;;12.13;5.93;;;;;;;;;;5064603;28;20135;-50
2024/03/23 09:23:36;;;;;;;14.93;6.90;;;;;;;;;;5053872;28;20033;-54
2024/03/23 09:26:06;;;;;;;7.55;5.53;;;;;;;;;;5054964;28;20041;-56
2024/03/23 09:28:32;;;;;;;8.00;4.97;;;;;;;;;;5059214;28;20122;-55
2024/03/23 09:31:04;;;;;;;13.88;5.70;;;;;;;;;;5048319;28;20136;-55
2024/03/23 09:33:30;;;;;;;10.85;5.15;;;;;;;;;;5057371;28;20526;-53
2024/03/23 09:35:58;;;;;;;9.63;5.53;;;;;;;;;;5054862;28;20040;-50
2024/03/23 09:38:24;;;;;;;6.43;4.55;;;;;;;;;;5056253;28;20025;-51
2024/03/23 09:40:53;;;;;;;7.88;4.05;;;;;;;;;;5062809;28;20035;-51
2024/03/23 09:43:19;;;;;;;9.60;6.03;;;;;;;;;;5056293;28;20040;-55
2024/03/23 09:45:45;;;;;;;9.65;5.60;;;;;;;;;;5070113;28;20042;-55
2024/03/23 09:48:11;;;;;;;7.75;5.10;;;;;;;;;;5067388;28;20031;-55
2024/03/23 09:50:40;;;;;;;12.90;7.20;;;;;;;;;;5075049;28;20047;-56
2024/03/23 09:53:07;;;;;;;12.60;7.18;;;;;;;;;;5072959;28;20028;-52
2024/03/23 09:55:33;;;;;;;8.15;3.80;;;;;;;;;;5071680;28;20037;-51
2024/03/23 09:57:59;;;;;;;6.43;3.53;;;;;;;;;;5070921;28;20043;-55
2024/03/23 10:00:25;;;;;;;13.43;6.43;;;;;;;;;;5071600;28;20038;-53
2024/03/23 10:02:51;;;;;;;11.38;5.82;;;;;;;;;;5073842;28;20040;-53
2024/03/23 10:05:22;;;;;;;11.07;5.65;;;;;;;;;;5050370;28;20036;-52
2024/03/23 10:07:49;;;;;;;9.35;4.95;;;;;;;;;;5057117;28;20032;-50
2024/03/23 10:10:15;;;;;;;7.30;3.60;;;;;;;;;;5072625;28;20415;-50
2024/03/23 10:12:47;;;;;;;10.35;5.57;;;;;;;;;;5055492;28;20036;-52
2024/03/23 10:15:20;;;;;;;13.73;6.63;;;;;;;;;;5069604;28;20043;-54
2024/03/23 10:17:45;;;;;;;6.53;4.05;;;;;;;;;;5073749;28;20028;-53
2024/03/23 10:20:19;;;;;;;6.95;4.35;;;;;;;;;;5066634;28;20036;-53
2024/03/23 10:22:45;;;;;;;9.48;4.93;;;;;;;;;;5075557;28;20574;-53
2024/03/23 10:25:11;;;;;;;6.38;3.83;;;;;;;;;;5075148;28;20059;-54
2024/03/23 10:27:37;;;;;;;8.05;5.07;;;;;;;;;;5071800;28;20576;-56
2024/03/23 10:30:10;;;;;;;10.73;6.13;;;;;;;;;;5062827;28;20036;-54
2024/03/23 10:32:36;;;;;;;9.93;4.95;;;;;;;;;;5062703;28;20075;-50
2024/03/23 10:35:18;;;;;;;14.65;6.18;;;;;;;;;;5076885;28;20040;-54
2024/03/23 10:37:44;;;;;;;11.35;6.07;;;;;;;;;;5075912;28;20064;-49
2024/03/23 10:40:11;;;;;;;9.73;4.20;;;;;;;;;;5037059;28;20534;-55
2024/03/23 10:42:37;;;;;;;7.88;4.75;;;;;;;;;;5064923;28;20056;-51
2024/03/23 10:45:06;;;;;;;7.75;5.32;;;;;;;;;;5071627;28;20037;-51
2024/03/23 10:47:34;;;;;;;10.38;4.78;;;;;;;;;;5075821;28;20047;-54
2024/03/23 10:50:00;;;;;;;10.60;5.70;;;;;;;;;;5057902;28;21152;-54
2024/03/23 10:52:25;;;;;;;7.07;3.97;;;;;;;;;;5067593;28;20765;-54
2024/03/23 10:54:51;;;;;;;8.90;5.15;;;;;;;;;;5070912;28;20789;-53
2024/03/23 10:57:23;;;;;;;10.07;4.35;;;;;;;;;;5076830;28;20071;-50
2024/03/23 10:59:49;;;;;;;7.22;4.72;;;;;;;;;;5076840;28;20312;-53
2024/03/23 11:02:21;;;;;;;8.27;5.18;;;;;;;;;;5071616;28;20036;-52
2024/03/23 11:04:48;;;;;;;14.50;5.57;;;;;;;;;;5064320;28;22092;-52
2024/03/23 11:07:19;;;;;;;8.85;4.70;;;;;;;;;;5078423;28;20040;-53
2024/03/23 11:09:45;;;;;;;6.93;5.20;;;;;;;;;;5065393;28;20032;-49
2024/03/23 11:12:23;;;;;;;7.18;4.32;;;;;;;;;;5066646;28;20033;-54
2024/03/23 11:14:49;;;;;;;13.55;6.93;;;;;;;;;;5063873;28;20037;-51
2024/03/23 11:17:25;;;;;;;9.23;5.82;;;;;;;;;;5065736;28;20043;-53
2024/03/23 11:19:59;;;;;;;11.25;5.25;;;;;;;;;;5069032;28;20052;-52
2024/03/23 11:22:40;;;;;;;10.32;6.30;;;;;;;;;;5069272;28;20031;-54
2024/03/23 11:25:15;;;;;;;14.40;6.68;;;;;;;;;;5054501;28;20534;-53
2024/03/23 11:27:40;;;;;;;7.38;4.68;;;;;;;;;;5073668;28;20028;-55
2024/03/23 11:30:10;;;;;;;10.40;5.22;;;;;;;;;;5069579;28;20033;-55
2024/03/23 11:32:35;;;;;;;;;;;;;;;;;;5062855;28;20089;-56
2024/03/23 11:35:01;;;;;;;9.98;5.63;;;;;;;;;;5066302;28;20380;-55
2024/03/23 11:37:27;;;;;;;12.27;5.88;;;;;;;;;;5065706;28;20504;-52
2024/03/23 11:39:53;;;;;;;11.48;5.53;;;;;;;;;;5048887;28;20040;-55
2024/03/23 11:42:20;;;;;;;12.05;5.68;;;;;;;;;;5063124;28;20607;-53
2024/03/23 11:44:47;;;;;;;11.63;6.43;;;;;;;;;;5067233;28;20028;-56
2024/03/23 11:47:12;;;;;;;9.63;4.78;;;;;;;;;;5064812;28;20036;-52
2024/03/23 11:49:40;;;;;;;14.77;6.25;;;;;;;;;;5053605;28;20739;-55
2024/03/23 11:52:07;;;;;;;9.40;5.65;;;;;;;;;;5048872;28;20052;-54
2024/03/23 11:54:33;;;;;;;11.52;6.45;;;;;;;;;;5067636;28;20180;-49
2024/03/23 11:56:58;;;;;;;12.27;4.65;;;;;;;;;;5071908;28;20047;-52
2024/03/23 11:59:33;;;;;;;8.88;5.05;;;;;;;;;;5072619;28;20277;-52
2024/03/23 12:01:59;;;;;;;8.10;4.63;;;;;;;;;;5033606;28;20094;-52
2024/03/23 12:04:28;;;;;;;11.10;6.43;;;;;;;;;;5048668;28;20033;-52
2024/03/23 12:07:15;;;;;;;9.55;5.40;;;;;;;;;;5064854;28;20067;-51
2024/03/23 12:09:41;;;;;;;12.80;6.85;;;;;;;;;;5066218;28;20040;-52
2024/03/23 12:12:14;;;;;;;16.73;7.27;;;;;;;;;;5064877;28;20064;-48
2024/03/23 12:14:40;;;;;;;14.50;6.90;;;;;;;;;;5062442;28;20341;-50
2024/03/23 12:17:12;;;;;;;12.43;6.07;;;;;;;;;;5068271;28;20093;-53
2024/03/23 12:19:38;;;;;;;16.10;7.45;;;;;;;;;;5068622;28;20028;-53
2024/03/23 12:22:07;;;;;;;11.57;6.18;;;;;;;;;;5065330;28;20531;-52
2024/03/23 12:24:36;;;;;;;;;;;;;;;;;;5064180;28;20558;-53
2024/03/23 12:27:02;;;;;;;13.50;7.87;;;;;;;;;;5065235;28;20238;-50
2024/03/23 12:29:29;;;;;;;14.50;5.88;;;;;;;;;;5064811;28;20139;-52
2024/03/23 12:31:55;;;;;;;13.43;7.97;;;;;;;;;;5028489;28;20423;-52
2024/03/23 12:34:21;;;;;;;11.25;5.45;;;;;;;;;;5045836;28;20033;-49
2024/03/23 12:36:47;;;;;;;12.80;7.53;;;;;;;;;;5062555;28;20554;-49
2024/03/23 12:39:12;;;;;;;14.73;6.68;;;;;;;;;;5065912;28;20454;-49
2024/03/23 12:41:38;;;;;;;12.32;6.35;;;;;;;;;;5066142;28;20070;-50
2024/03/23 12:44:04;;;;;;;10.88;6.15;;;;;;;;;;5064846;28;20039;-52
2024/03/23 12:46:29;;;;;;;14.20;7.90;;;;;;;;;;5061559;28;20044;-52
2024/03/23 12:48:55;;;;;;;17.08;7.93;;;;;;;;;;5060066;28;20036;-54
2024/03/23 12:51:21;;;;;;;15.25;7.20;;;;;;;;;;5038651;28;20024;-52
2024/03/23 12:53:47;;;;;;;14.02;6.63;;;;;;;;;;5062620;28;20715;-48
2024/03/23 12:56:12;;;;;;;14.40;7.63;;;;;;;;;;5048422;28;20077;-51
2024/03/23 12:58:38;;;;;;;15.30;7.03;;;;;;;;;;5044442;28;20078;-53
2024/03/23 13:01:06;;;;;;;9.70;5.40;;;;;;;;;;5044882;28;20139;-54
2024/03/23 13:03:31;;;;;;;15.02;6.95;;;;;;;;;;5061601;28;20047;-54
2024/03/23 13:05:57;;;;;;;15.70;7.05;;;;;;;;;;5063948;28;20511;-52
2024/03/23 13:08:23;;;;;;;14.73;8.10;;;;;;;;;;5072671;28;20037;-55
2024/03/23 13:10:54;;;;;;;11.40;6.05;;;;;;;;;;5074863;28;20052;-53
2024/03/23 13:13:22;;;;;;;19.08;7.70;;;;;;;;;;5074548;28;20058;-51
2024/03/23 13:15:51;;;;;;;11.02;5.57;;;;;;;;;;5075413;28;20040;-49
2024/03/23 13:18:17;;;;;;;18.30;7.88;;;;;;;;;;5071620;28;20028;-49
2024/03/23 13:20:42;;;;;;;12.52;5.68;;;;;;;;;;5074631;28;20028;-52
2024/03/23 13:23:08;;;;;;;15.02;7.90;;;;;;;;;;5075683;28;20055;-51
2024/03/23 13:25:34;;;;;;;14.90;7.40;;;;;;;;;;5074976;28;20794;-52
2024/03/23 13:28:01;;;;;;;17.60;8.15;;;;;;;;;;5068701;28;20067;-50
2024/03/23 13:30:26;;;;;;;7.32;4.40;;;;;;;;;;5074214;28;20063;-55
2024/03/23 13:32:52;;;;;;;13.10;6.22;;;;;;;;;;5077813;28;20105;-50
2024/03/23 13:35:18;;;;;;;16.77;8.63;;;;;;;;;;5053728;28;20048;-53
2024/03/23 13:37:44;;;;;;;16.63;8.15;;;;;;;;;;5047293;28;20041;-52
2024/03/23 13:40:10;;;;;;;10.10;5.07;;;;;;;;;;5058673;28;20032;-52
2024/03/23 13:42:35;;;;;;;16.77;7.32;;;;;;;;;;5044524;28;20097;-54
2024/03/23 13:45:01;;;;;;;13.32;7.00;;;;;;;;;;5061589;28;20131;-54
2024/03/23 13:47:29;;;;;;;14.13;7.22;;;;;;;;;;5047681;28;20036;-52
2024/03/23 13:49:55;;;;;;;13.77;6.90;;;;;;;;;;5061788;28;20079;-58
2024/03/23 13:52:24;;;;;;;10.00;5.97;;;;;;;;;;5058243;28;20051;-54
2024/03/23 13:54:50;;;;;;;9.85;5.45;;;;;;;;;;5045897;28;20147;-57
2024/03/23 13:57:17;;;;;;;9.57;5.60;;;;;;;;;;5049539;28;20204;-55
2024/03/23 13:59:42;;;;;;;13.75;6.90;;;;;;;;;;5049688;28;20033;-55
2024/03/23 14:02:08;;;;;;;11.57;6.45;;;;;;;;;;5080943;28;20491;-55
2024/03/23 14:04:34;;;;;;;12.77;6.70;;;;;;;;;;5069593;28;20036;-51
2024/03/23 14:07:00;;;;;;;8.63;5.07;;;;;;;;;;5069444;28;20029;-50
2024/03/23 14:09:25;;;;;;;11.18;5.13;;;;;;;;;;5059692;28;20072;-54
2024/03/23 14:11:51;;;;;;;10.63;6.32;;;;;;;;;;5078075;28;20032;-55
2024/03/23 14:14:17;;;;;;;6.97;4.32;;;;;;;;;;5058587;28;20526;-55
2024/03/23 14:16:43;;;;;;;11.82;6.57;;;;;;;;;;5078524;28;20040;-53
2024/03/23 14:19:11;;;;;;;9.00;4.88;;;;;;;;;;5077477;28;20136;-54
2024/03/23 14:21:38;;;;;;;11.90;6.38;;;;;;;;;;5078544;28;20127;-55
2024/03/23 14:24:04;;;;;;;12.20;6.20;;;;;;;;;;5077835;28;20060;-54
2024/03/23 14:26:29;;;;;;;13.50;6.68;;;;;;;;;;5075895;28;20059;-55